sensor_id;sensor_type;location;lat;lon;timestamp;temperature;humidity
70166;SHT30;57541;47.408;18.822;2023-02-26T00:00:29;4.05;81.17
70166;SHT30;57541;47.408;18.822;2023-02-26T00:01:01;4.09;81.06
70166;SHT30;57541;47.408;18.822;2023-02-26T00:01:33;3.99;80.84
70166;SHT30;57541;47.408;18.822;2023-02-26T00:02:04;4.00;80.52
70166;SHT30;57541;47.408;18.822;2023-02-26T00:02:37;3.98;80.48
70166;SHT30;57541;47.408;18.822;2023-02-26T00:03:09;3.93;80.50
70166;SHT30;57541;47.408;18.822;2023-02-26T00:03:40;4.02;80.57
70166;SHT30;57541;47.408;18.822;2023-02-26T00:04:12;4.00;80.72
70166;SHT30;57541;47.408;18.822;2023-02-26T00:04:44;3.96;80.71
70166;SHT30;57541;47.408;18.822;2023-02-26T00:05:16;4.00;81.21
70166;SHT30;57541;47.408;18.822;2023-02-26T00:05:47;4.03;80.81
70166;SHT30;57541;47.408;18.822;2023-02-26T00:06:19;4.05;80.44
70166;SHT30;57541;47.408;18.822;2023-02-26T00:06:51;4.07;80.40
70166;SHT30;57541;47.408;18.822;2023-02-26T00:07:26;3.98;80.46
70166;SHT30;57541;47.408;18.822;2023-02-26T00:08:00;3.98;80.43
70166;SHT30;57541;47.408;18.822;2023-02-26T00:08:32;3.93;80.44
70166;SHT30;57541;47.408;18.822;2023-02-26T00:09:04;3.93;80.49
70166;SHT30;57541;47.408;18.822;2023-02-26T00:09:36;3.86;80.50
70166;SHT30;57541;47.408;18.822;2023-02-26T00:10:11;3.93;80.41
70166;SHT30;57541;47.408;18.822;2023-02-26T00:10:42;3.91;80.66
70166;SHT30;57541;47.408;18.822;2023-02-26T00:11:14;3.86;80.59
70166;SHT30;57541;47.408;18.822;2023-02-26T00:11:47;3.82;80.46
70166;SHT30;57541;47.408;18.822;2023-02-26T00:12:19;3.88;81.01
70166;SHT30;57541;47.408;18.822;2023-02-26T00:12:51;3.86;80.79
70166;SHT30;57541;47.408;18.822;2023-02-26T00:13:23;3.85;80.92
70166;SHT30;57541;47.408;18.822;2023-02-26T00:13:55;3.83;80.96
70166;SHT30;57541;47.408;18.822;2023-02-26T00:14:27;3.91;80.62
70166;SHT30;57541;47.408;18.822;2023-02-26T00:14:59;3.89;80.53
70166;SHT30;57541;47.408;18.822;2023-02-26T00:15:31;3.88;80.51
70166;SHT30;57541;47.408;18.822;2023-02-26T00:18:07;3.88;80.66
70166;SHT30;57541;47.408;18.822;2023-02-26T00:18:42;3.91;80.61
70166;SHT30;57541;47.408;18.822;2023-02-26T00:19:14;3.86;80.88
70166;SHT30;57541;47.408;18.822;2023-02-26T00:19:46;3.88;81.00
70166;SHT30;57541;47.408;18.822;2023-02-26T00:20:17;3.86;81.21
70166;SHT30;57541;47.408;18.822;2023-02-26T00:20:50;3.83;81.22
70166;SHT30;57541;47.408;18.822;2023-02-26T00:21:23;3.82;81.20
70166;SHT30;57541;47.408;18.822;2023-02-26T00:21:55;3.85;80.93
70166;SHT30;57541;47.408;18.822;2023-02-26T00:22:27;3.81;81.06
70166;SHT30;57541;47.408;18.822;2023-02-26T00:22:59;3.85;81.18
70166;SHT30;57541;47.408;18.822;2023-02-26T00:23:31;3.83;81.06
70166;SHT30;57541;47.408;18.822;2023-02-26T00:24:03;3.83;80.78
70166;SHT30;57541;47.408;18.822;2023-02-26T00:24:36;3.78;81.10
70166;SHT30;57541;47.408;18.822;2023-02-26T00:25:09;3.82;81.46
70166;SHT30;57541;47.408;18.822;2023-02-26T00:25:41;3.85;81.32
70166;SHT30;57541;47.408;18.822;2023-02-26T00:26:12;3.82;81.21
70166;SHT30;57541;47.408;18.822;2023-02-26T00:26:44;3.83;81.17
70166;SHT30;57541;47.408;18.822;2023-02-26T00:27:16;3.86;81.00
70166;SHT30;57541;47.408;18.822;2023-02-26T00:27:48;3.86;80.94
70166;SHT30;57541;47.408;18.822;2023-02-26T00:28:20;3.91;80.66
70166;SHT30;57541;47.408;18.822;2023-02-26T00:28:52;3.81;80.70
70166;SHT30;57541;47.408;18.822;2023-02-26T00:29:24;3.77;80.99
70166;SHT30;57541;47.408;18.822;2023-02-26T00:29:56;3.72;81.09
70166;SHT30;57541;47.408;18.822;2023-02-26T00:30:28;3.75;81.16
70166;SHT30;57541;47.408;18.822;2023-02-26T00:31:00;3.77;81.03
70166;SHT30;57541;47.408;18.822;2023-02-26T00:31:32;3.77;81.19
70166;SHT30;57541;47.408;18.822;2023-02-26T00:32:04;3.75;80.96
70166;SHT30;57541;47.408;18.822;2023-02-26T00:32:37;3.74;80.91
70166;SHT30;57541;47.408;18.822;2023-02-26T00:33:10;3.75;80.83
70166;SHT30;57541;47.408;18.822;2023-02-26T00:33:42;3.75;80.93
70166;SHT30;57541;47.408;18.822;2023-02-26T00:34:15;3.75;80.71
70166;SHT30;57541;47.408;18.822;2023-02-26T00:34:47;3.71;81.09
70166;SHT30;57541;47.408;18.822;2023-02-26T00:35:19;3.72;81.28
70166;SHT30;57541;47.408;18.822;2023-02-26T00:35:54;3.78;81.33
70166;SHT30;57541;47.408;18.822;2023-02-26T00:38:09;3.88;80.83
70166;SHT30;57541;47.408;18.822;2023-02-26T00:38:43;3.85;81.14
70166;SHT30;57541;47.408;18.822;2023-02-26T00:41:08;3.75;81.25
70166;SHT30;57541;47.408;18.822;2023-02-26T00:41:40;3.75;81.05
70166;SHT30;57541;47.408;18.822;2023-02-26T00:42:13;3.78;81.33
70166;SHT30;57541;47.408;18.822;2023-02-26T00:42:45;3.82;81.43
70166;SHT30;57541;47.408;18.822;2023-02-26T00:43:22;3.74;81.58
70166;SHT30;57541;47.408;18.822;2023-02-26T00:43:55;3.77;81.55
70166;SHT30;57541;47.408;18.822;2023-02-26T00:44:27;3.77;81.49
70166;SHT30;57541;47.408;18.822;2023-02-26T00:44:59;3.79;81.70
70166;SHT30;57541;47.408;18.822;2023-02-26T00:45:31;3.82;81.35
70166;SHT30;57541;47.408;18.822;2023-02-26T00:46:16;3.86;80.90
70166;SHT30;57541;47.408;18.822;2023-02-26T00:47:02;3.83;80.99
70166;SHT30;57541;47.408;18.822;2023-02-26T00:49:14;3.88;81.29
70166;SHT30;57541;47.408;18.822;2023-02-26T00:51:23;3.82;81.12
70166;SHT30;57541;47.408;18.822;2023-02-26T00:52:01;3.79;80.89
70166;SHT30;57541;47.408;18.822;2023-02-26T00:53:51;3.81;81.44
70166;SHT30;57541;47.408;18.822;2023-02-26T00:54:29;3.74;81.49
70166;SHT30;57541;47.408;18.822;2023-02-26T00:55:01;3.82;81.41
70166;SHT30;57541;47.408;18.822;2023-02-26T00:55:33;3.83;80.88
70166;SHT30;57541;47.408;18.822;2023-02-26T00:56:06;3.83;80.91
70166;SHT30;57541;47.408;18.822;2023-02-26T00:56:37;3.79;81.06
70166;SHT30;57541;47.408;18.822;2023-02-26T00:57:09;3.78;81.28
70166;SHT30;57541;47.408;18.822;2023-02-26T00:57:40;3.83;81.04
70166;SHT30;57541;47.408;18.822;2023-02-26T00:58:12;3.83;80.88
70166;SHT30;57541;47.408;18.822;2023-02-26T00:58:44;3.82;80.90
70166;SHT30;57541;47.408;18.822;2023-02-26T00:59:16;3.79;80.92
70166;SHT30;57541;47.408;18.822;2023-02-26T00:59:48;3.82;80.98
70166;SHT30;57541;47.408;18.822;2023-02-26T01:00:20;3.78;81.18
70166;SHT30;57541;47.408;18.822;2023-02-26T01:00:51;3.78;81.23
70166;SHT30;57541;47.408;18.822;2023-02-26T01:01:23;3.85;80.68
70166;SHT30;57541;47.408;18.822;2023-02-26T01:01:55;3.70;80.99
70166;SHT30;57541;47.408;18.822;2023-02-26T01:02:27;3.70;81.44
70166;SHT30;57541;47.408;18.822;2023-02-26T01:02:58;3.67;81.34
70166;SHT30;57541;47.408;18.822;2023-02-26T01:03:31;3.72;81.43
70166;SHT30;57541;47.408;18.822;2023-02-26T01:04:04;3.71;81.66
70166;SHT30;57541;47.408;18.822;2023-02-26T01:04:36;3.79;81.70
70166;SHT30;57541;47.408;18.822;2023-02-26T01:05:09;3.83;81.52
70166;SHT30;57541;47.408;18.822;2023-02-26T01:05:41;3.82;81.01
70166;SHT30;57541;47.408;18.822;2023-02-26T01:06:16;3.79;81.40
70166;SHT30;57541;47.408;18.822;2023-02-26T01:06:54;3.83;81.29
70166;SHT30;57541;47.408;18.822;2023-02-26T01:07:27;3.88;81.08
70166;SHT30;57541;47.408;18.822;2023-02-26T01:08:08;3.88;80.85
70166;SHT30;57541;47.408;18.822;2023-02-26T01:09:17;3.86;80.74
70166;SHT30;57541;47.408;18.822;2023-02-26T01:09:53;3.77;81.03
70166;SHT30;57541;47.408;18.822;2023-02-26T01:10:24;3.70;81.04
70166;SHT30;57541;47.408;18.822;2023-02-26T01:10:57;3.71;81.16
70166;SHT30;57541;47.408;18.822;2023-02-26T01:11:29;3.65;81.42
70166;SHT30;57541;47.408;18.822;2023-02-26T01:12:04;3.74;81.35
70166;SHT30;57541;47.408;18.822;2023-02-26T01:12:38;3.71;81.13
70166;SHT30;57541;47.408;18.822;2023-02-26T01:13:10;3.75;80.89
70166;SHT30;57541;47.408;18.822;2023-02-26T01:13:43;3.71;80.91
70166;SHT30;57541;47.408;18.822;2023-02-26T01:14:15;3.70;81.22
70166;SHT30;57541;47.408;18.822;2023-02-26T01:14:47;3.70;81.10
70166;SHT30;57541;47.408;18.822;2023-02-26T01:15:22;3.71;81.05
70166;SHT30;57541;47.408;18.822;2023-02-26T01:16:01;3.65;81.45
70166;SHT30;57541;47.408;18.822;2023-02-26T01:17:03;3.75;81.55
70166;SHT30;57541;47.408;18.822;2023-02-26T01:17:50;3.75;81.64
70166;SHT30;57541;47.408;18.822;2023-02-26T01:18:28;3.72;81.18
70166;SHT30;57541;47.408;18.822;2023-02-26T01:19:13;3.75;81.02
70166;SHT30;57541;47.408;18.822;2023-02-26T01:20:25;3.74;81.21
70166;SHT30;57541;47.408;18.822;2023-02-26T01:21:04;3.78;81.13
70166;SHT30;57541;47.408;18.822;2023-02-26T01:21:42;3.83;80.75
70166;SHT30;57541;47.408;18.822;2023-02-26T01:22:27;3.75;80.74
70166;SHT30;57541;47.408;18.822;2023-02-26T01:23:04;3.70;80.81
70166;SHT30;57541;47.408;18.822;2023-02-26T01:23:43;3.71;81.09
70166;SHT30;57541;47.408;18.822;2023-02-26T01:24:19;3.75;80.88
70166;SHT30;57541;47.408;18.822;2023-02-26T01:25:01;3.70;80.73
70166;SHT30;57541;47.408;18.822;2023-02-26T01:25:44;3.70;81.11
70166;SHT30;57541;47.408;18.822;2023-02-26T01:26:27;3.70;81.23
70166;SHT30;57541;47.408;18.822;2023-02-26T01:26:59;3.72;81.13
70166;SHT30;57541;47.408;18.822;2023-02-26T01:27:31;3.64;81.09
70166;SHT30;57541;47.408;18.822;2023-02-26T01:28:03;3.62;81.13
70166;SHT30;57541;47.408;18.822;2023-02-26T01:28:35;3.54;81.57
70166;SHT30;57541;47.408;18.822;2023-02-26T01:29:07;3.58;81.64
70166;SHT30;57541;47.408;18.822;2023-02-26T01:29:39;3.51;82.05
70166;SHT30;57541;47.408;18.822;2023-02-26T01:30:11;3.60;81.86
70166;SHT30;57541;47.408;18.822;2023-02-26T01:30:43;3.60;81.67
70166;SHT30;57541;47.408;18.822;2023-02-26T01:32:15;3.51;81.88
70166;SHT30;57541;47.408;18.822;2023-02-26T01:33:06;3.55;81.80
70166;SHT30;57541;47.408;18.822;2023-02-26T01:33:59;3.52;81.50
70166;SHT30;57541;47.408;18.822;2023-02-26T01:34:34;3.55;81.56
70166;SHT30;57541;47.408;18.822;2023-02-26T01:35:16;3.68;81.47
70166;SHT30;57541;47.408;18.822;2023-02-26T01:36:59;3.67;80.99
70166;SHT30;57541;47.408;18.822;2023-02-26T01:37:41;3.60;81.15
70166;SHT30;57541;47.408;18.822;2023-02-26T01:39:07;3.60;81.28
70166;SHT30;57541;47.408;18.822;2023-02-26T01:39:46;3.60;81.52
70166;SHT30;57541;47.408;18.822;2023-02-26T01:41:54;3.65;81.19
70166;SHT30;57541;47.408;18.822;2023-02-26T01:42:30;3.61;81.31
70166;SHT30;57541;47.408;18.822;2023-02-26T01:43:10;3.65;80.94
70166;SHT30;57541;47.408;18.822;2023-02-26T01:45:31;3.65;80.54
70166;SHT30;57541;47.408;18.822;2023-02-26T01:46:21;3.62;80.97
70166;SHT30;57541;47.408;18.822;2023-02-26T01:48:15;3.67;81.06
70166;SHT30;57541;47.408;18.822;2023-02-26T01:48:56;3.72;81.30
70166;SHT30;57541;47.408;18.822;2023-02-26T01:49:29;3.70;81.16
70166;SHT30;57541;47.408;18.822;2023-02-26T01:50:19;3.65;81.06
70166;SHT30;57541;47.408;18.822;2023-02-26T01:50:52;3.60;81.05
70166;SHT30;57541;47.408;18.822;2023-02-26T01:53:24;3.50;81.83
70166;SHT30;57541;47.408;18.822;2023-02-26T01:53:56;3.55;82.44
70166;SHT30;57541;47.408;18.822;2023-02-26T01:54:30;3.54;82.75
70166;SHT30;57541;47.408;18.822;2023-02-26T01:55:04;3.52;82.66
70166;SHT30;57541;47.408;18.822;2023-02-26T01:55:36;3.52;82.52
70166;SHT30;57541;47.408;18.822;2023-02-26T01:56:17;3.48;82.64
70166;SHT30;57541;47.408;18.822;2023-02-26T01:57:50;3.47;82.66
70166;SHT30;57541;47.408;18.822;2023-02-26T01:58:23;3.51;82.49
70166;SHT30;57541;47.408;18.822;2023-02-26T01:58:56;3.47;82.31
70166;SHT30;57541;47.408;18.822;2023-02-26T01:59:29;3.50;82.58
70166;SHT30;57541;47.408;18.822;2023-02-26T02:00:03;3.52;82.21
70166;SHT30;57541;47.408;18.822;2023-02-26T02:00:35;3.54;82.02
70166;SHT30;57541;47.408;18.822;2023-02-26T02:01:07;3.55;82.19
70166;SHT30;57541;47.408;18.822;2023-02-26T02:01:39;3.50;82.31
70166;SHT30;57541;47.408;18.822;2023-02-26T02:02:12;3.50;82.04
70166;SHT30;57541;47.408;18.822;2023-02-26T02:02:45;3.41;82.63
70166;SHT30;57541;47.408;18.822;2023-02-26T02:03:19;3.47;83.12
70166;SHT30;57541;47.408;18.822;2023-02-26T02:03:51;3.45;82.82
70166;SHT30;57541;47.408;18.822;2023-02-26T02:04:23;3.51;82.89
70166;SHT30;57541;47.408;18.822;2023-02-26T02:05:01;3.54;82.63
70166;SHT30;57541;47.408;18.822;2023-02-26T02:05:42;3.47;82.58
70166;SHT30;57541;47.408;18.822;2023-02-26T02:06:22;3.45;82.70
70166;SHT30;57541;47.408;18.822;2023-02-26T02:06:55;3.54;82.78
70166;SHT30;57541;47.408;18.822;2023-02-26T02:07:28;3.47;82.80
70166;SHT30;57541;47.408;18.822;2023-02-26T02:08:00;3.47;82.74
70166;SHT30;57541;47.408;18.822;2023-02-26T02:08:33;3.50;82.35
70166;SHT30;57541;47.408;18.822;2023-02-26T02:09:07;3.54;82.51
70166;SHT30;57541;47.408;18.822;2023-02-26T02:09:39;3.58;82.73
70166;SHT30;57541;47.408;18.822;2023-02-26T02:10:12;3.50;82.71
70166;SHT30;57541;47.408;18.822;2023-02-26T02:10:46;3.54;82.86
70166;SHT30;57541;47.408;18.822;2023-02-26T02:11:19;3.50;82.69
70166;SHT30;57541;47.408;18.822;2023-02-26T02:12:07;3.50;82.39
70166;SHT30;57541;47.408;18.822;2023-02-26T02:13:29;3.45;82.43
70166;SHT30;57541;47.408;18.822;2023-02-26T02:16:36;3.44;82.88
70166;SHT30;57541;47.408;18.822;2023-02-26T02:18:44;3.33;83.14
70166;SHT30;57541;47.408;18.822;2023-02-26T02:19:23;3.41;82.98
70166;SHT30;57541;47.408;18.822;2023-02-26T02:20:25;3.34;83.46
70166;SHT30;57541;47.408;18.822;2023-02-26T02:21:55;3.40;83.31
70166;SHT30;57541;47.408;18.822;2023-02-26T02:22:34;3.48;82.89
70166;SHT30;57541;47.408;18.822;2023-02-26T02:23:14;3.47;82.92
70166;SHT30;57541;47.408;18.822;2023-02-26T02:29:02;3.28;83.43
70166;SHT30;57541;47.408;18.822;2023-02-26T02:30:55;3.26;83.42
70166;SHT30;57541;47.408;18.822;2023-02-26T02:31:32;3.23;83.40
70166;SHT30;57541;47.408;18.822;2023-02-26T02:32:09;3.28;83.44
70166;SHT30;57541;47.408;18.822;2023-02-26T02:32:54;3.28;83.53
70166;SHT30;57541;47.408;18.822;2023-02-26T02:33:33;3.30;84.51
70166;SHT30;57541;47.408;18.822;2023-02-26T02:34:18;3.33;84.34
70166;SHT30;57541;47.408;18.822;2023-02-26T02:34:56;3.40;83.96
70166;SHT30;57541;47.408;18.822;2023-02-26T02:35:51;3.37;83.57
70166;SHT30;57541;47.408;18.822;2023-02-26T02:38:44;3.34;83.80
70166;SHT30;57541;47.408;18.822;2023-02-26T02:39:32;3.35;83.70
70166;SHT30;57541;47.408;18.822;2023-02-26T02:40:10;3.44;83.62
70166;SHT30;57541;47.408;18.822;2023-02-26T02:40:48;3.44;83.51
70166;SHT30;57541;47.408;18.822;2023-02-26T02:41:29;3.44;83.61
70166;SHT30;57541;47.408;18.822;2023-02-26T02:43:03;3.44;83.24
70166;SHT30;57541;47.408;18.822;2023-02-26T02:43:38;3.41;83.19
70166;SHT30;57541;47.408;18.822;2023-02-26T02:44:14;3.37;83.24
70166;SHT30;57541;47.408;18.822;2023-02-26T02:44:55;3.44;83.25
70166;SHT30;57541;47.408;18.822;2023-02-26T02:45:50;3.33;83.09
70166;SHT30;57541;47.408;18.822;2023-02-26T02:46:26;3.37;83.57
70166;SHT30;57541;47.408;18.822;2023-02-26T02:47:00;3.42;83.71
70166;SHT30;57541;47.408;18.822;2023-02-26T02:47:34;3.50;83.34
70166;SHT30;57541;47.408;18.822;2023-02-26T02:48:43;3.40;83.07
70166;SHT30;57541;47.408;18.822;2023-02-26T02:49:27;3.37;83.76
70166;SHT30;57541;47.408;18.822;2023-02-26T02:50:18;3.38;83.64
70166;SHT30;57541;47.408;18.822;2023-02-26T02:50:56;3.30;83.55
70166;SHT30;57541;47.408;18.822;2023-02-26T02:51:33;3.33;83.90
70166;SHT30;57541;47.408;18.822;2023-02-26T02:52:18;3.23;84.45
70166;SHT30;57541;47.408;18.822;2023-02-26T02:53:24;3.33;83.92
70166;SHT30;57541;47.408;18.822;2023-02-26T02:54:05;3.30;83.58
70166;SHT30;57541;47.408;18.822;2023-02-26T02:54:47;3.28;83.75
70166;SHT30;57541;47.408;18.822;2023-02-26T02:55:29;3.26;84.00
70166;SHT30;57541;47.408;18.822;2023-02-26T02:56:09;3.21;84.34
70166;SHT30;57541;47.408;18.822;2023-02-26T02:56:47;3.23;84.27
70166;SHT30;57541;47.408;18.822;2023-02-26T02:57:27;3.26;84.04
70166;SHT30;57541;47.408;18.822;2023-02-26T02:58:46;3.31;83.88
70166;SHT30;57541;47.408;18.822;2023-02-26T02:59:36;3.27;83.61
70166;SHT30;57541;47.408;18.822;2023-02-26T03:00:11;3.33;83.26
70166;SHT30;57541;47.408;18.822;2023-02-26T03:00:53;3.31;83.36
70166;SHT30;57541;47.408;18.822;2023-02-26T03:01:27;3.26;83.52
70166;SHT30;57541;47.408;18.822;2023-02-26T03:02:10;3.31;83.59
70166;SHT30;57541;47.408;18.822;2023-02-26T03:03:27;3.30;84.06
70166;SHT30;57541;47.408;18.822;2023-02-26T03:04:06;3.31;83.88
70166;SHT30;57541;47.408;18.822;2023-02-26T03:04:39;3.35;83.90
70166;SHT30;57541;47.408;18.822;2023-02-26T03:05:13;3.34;83.73
70166;SHT30;57541;47.408;18.822;2023-02-26T03:05:45;3.31;83.74
70166;SHT30;57541;47.408;18.822;2023-02-26T03:06:17;3.30;83.94
70166;SHT30;57541;47.408;18.822;2023-02-26T03:06:49;3.28;84.07
70166;SHT30;57541;47.408;18.822;2023-02-26T03:07:21;3.31;83.86
70166;SHT30;57541;47.408;18.822;2023-02-26T03:07:56;3.31;83.68
70166;SHT30;57541;47.408;18.822;2023-02-26T03:08:34;3.31;83.59
70166;SHT30;57541;47.408;18.822;2023-02-26T03:09:08;3.33;83.63
70166;SHT30;57541;47.408;18.822;2023-02-26T03:09:41;3.35;83.58
70166;SHT30;57541;47.408;18.822;2023-02-26T03:10:13;3.28;83.62
70166;SHT30;57541;47.408;18.822;2023-02-26T03:10:45;3.28;83.63
70166;SHT30;57541;47.408;18.822;2023-02-26T03:11:17;3.30;83.91
70166;SHT30;57541;47.408;18.822;2023-02-26T03:11:49;3.33;83.78
70166;SHT30;57541;47.408;18.822;2023-02-26T03:12:20;3.34;83.70
70166;SHT30;57541;47.408;18.822;2023-02-26T03:12:52;3.21;83.87
70166;SHT30;57541;47.408;18.822;2023-02-26T03:13:25;3.24;83.98
70166;SHT30;57541;47.408;18.822;2023-02-26T03:13:57;3.27;83.78
70166;SHT30;57541;47.408;18.822;2023-02-26T03:14:30;3.35;83.70
70166;SHT30;57541;47.408;18.822;2023-02-26T03:15:03;3.40;83.48
70166;SHT30;57541;47.408;18.822;2023-02-26T03:15:41;3.34;83.49
70166;SHT30;57541;47.408;18.822;2023-02-26T03:18:59;3.17;84.01
70166;SHT30;57541;47.408;18.822;2023-02-26T03:20:26;3.16;84.35
70166;SHT30;57541;47.408;18.822;2023-02-26T03:21:11;3.09;84.09
70166;SHT30;57541;47.408;18.822;2023-02-26T03:23:23;3.11;83.92
70166;SHT30;57541;47.408;18.822;2023-02-26T03:24:13;3.10;84.08
70166;SHT30;57541;47.408;18.822;2023-02-26T03:25:02;3.11;84.14
70166;SHT30;57541;47.408;18.822;2023-02-26T03:26:26;3.11;84.04
70166;SHT30;57541;47.408;18.822;2023-02-26T03:27:15;3.16;84.00
70166;SHT30;57541;47.408;18.822;2023-02-26T03:28:55;3.17;83.55
70166;SHT30;57541;47.408;18.822;2023-02-26T03:30:11;3.14;83.64
70166;SHT30;57541;47.408;18.822;2023-02-26T03:30:57;3.09;83.85
70166;SHT30;57541;47.408;18.822;2023-02-26T03:31:57;3.11;84.19
70166;SHT30;57541;47.408;18.822;2023-02-26T03:33:55;3.11;83.97
70166;SHT30;57541;47.408;18.822;2023-02-26T03:34:34;3.09;84.32
70166;SHT30;57541;47.408;18.822;2023-02-26T03:35:20;3.10;84.05
70166;SHT30;57541;47.408;18.822;2023-02-26T03:37:53;3.11;84.07
70166;SHT30;57541;47.408;18.822;2023-02-26T03:38:46;3.17;83.90
70166;SHT30;57541;47.408;18.822;2023-02-26T03:39:55;3.13;83.77
70166;SHT30;57541;47.408;18.822;2023-02-26T03:40:34;3.07;83.68
70166;SHT30;57541;47.408;18.822;2023-02-26T03:41:12;3.09;84.06
70166;SHT30;57541;47.408;18.822;2023-02-26T03:41:50;3.03;83.97
70166;SHT30;57541;47.408;18.822;2023-02-26T03:42:32;3.02;84.10
70166;SHT30;57541;47.408;18.822;2023-02-26T03:43:17;3.10;83.76
70166;SHT30;57541;47.408;18.822;2023-02-26T03:44:01;3.09;83.91
70166;SHT30;57541;47.408;18.822;2023-02-26T03:44:38;3.16;84.14
70166;SHT30;57541;47.408;18.822;2023-02-26T03:45:15;3.02;84.20
70166;SHT30;57541;47.408;18.822;2023-02-26T03:45:49;3.14;84.19
70166;SHT30;57541;47.408;18.822;2023-02-26T03:46:28;3.11;84.05
70166;SHT30;57541;47.408;18.822;2023-02-26T03:47:07;3.10;84.11
70166;SHT30;57541;47.408;18.822;2023-02-26T03:47:44;3.11;84.53
70166;SHT30;57541;47.408;18.822;2023-02-26T03:48:20;3.16;84.92
70166;SHT30;57541;47.408;18.822;2023-02-26T03:48:56;3.10;84.60
70166;SHT30;57541;47.408;18.822;2023-02-26T03:49:35;3.09;85.05
70166;SHT30;57541;47.408;18.822;2023-02-26T03:50:36;3.13;85.05
70166;SHT30;57541;47.408;18.822;2023-02-26T03:51:12;3.21;84.27
70166;SHT30;57541;47.408;18.822;2023-02-26T03:51:45;3.23;84.02
70166;SHT30;57541;47.408;18.822;2023-02-26T03:52:19;3.21;83.87
70166;SHT30;57541;47.408;18.822;2023-02-26T03:52:53;3.19;83.73
70166;SHT30;57541;47.408;18.822;2023-02-26T03:53:33;3.13;83.54
70166;SHT30;57541;47.408;18.822;2023-02-26T03:54:20;3.14;83.88
70166;SHT30;57541;47.408;18.822;2023-02-26T03:55:04;3.10;83.70
70166;SHT30;57541;47.408;18.822;2023-02-26T03:55:47;3.00;83.95
70166;SHT30;57541;47.408;18.822;2023-02-26T03:56:38;2.95;84.20
70166;SHT30;57541;47.408;18.822;2023-02-26T03:57:10;2.99;84.25
70166;SHT30;57541;47.408;18.822;2023-02-26T03:57:43;3.00;84.14
70166;SHT30;57541;47.408;18.822;2023-02-26T03:58:15;2.96;83.94
70166;SHT30;57541;47.408;18.822;2023-02-26T03:58:47;2.96;83.72
70166;SHT30;57541;47.408;18.822;2023-02-26T03:59:19;2.89;83.88
70166;SHT30;57541;47.408;18.822;2023-02-26T03:59:51;2.85;83.92
70166;SHT30;57541;47.408;18.822;2023-02-26T04:00:23;2.92;84.21
70166;SHT30;57541;47.408;18.822;2023-02-26T04:01:01;2.92;84.16
70166;SHT30;57541;47.408;18.822;2023-02-26T04:02:09;2.86;83.86
70166;SHT30;57541;47.408;18.822;2023-02-26T04:03:07;2.79;84.02
70166;SHT30;57541;47.408;18.822;2023-02-26T04:03:49;2.79;85.09
70166;SHT30;57541;47.408;18.822;2023-02-26T04:04:34;2.83;84.53
70166;SHT30;57541;47.408;18.822;2023-02-26T04:05:25;2.83;84.08
70166;SHT30;57541;47.408;18.822;2023-02-26T04:05:58;2.86;83.78
70166;SHT30;57541;47.408;18.822;2023-02-26T04:06:30;2.95;83.84
70166;SHT30;57541;47.408;18.822;2023-02-26T04:07:03;2.89;83.45
70166;SHT30;57541;47.408;18.822;2023-02-26T04:07:35;2.86;83.62
70166;SHT30;57541;47.408;18.822;2023-02-26T04:08:07;2.93;83.62
70166;SHT30;57541;47.408;18.822;2023-02-26T04:08:39;2.90;83.62
70166;SHT30;57541;47.408;18.822;2023-02-26T04:09:11;2.83;83.29
70166;SHT30;57541;47.408;18.822;2023-02-26T04:09:48;2.92;83.56
70166;SHT30;57541;47.408;18.822;2023-02-26T04:10:26;2.89;83.30
70166;SHT30;57541;47.408;18.822;2023-02-26T04:11:10;2.89;83.33
70166;SHT30;57541;47.408;18.822;2023-02-26T04:11:42;2.90;83.28
70166;SHT30;57541;47.408;18.822;2023-02-26T04:12:14;2.95;83.10
70166;SHT30;57541;47.408;18.822;2023-02-26T04:12:46;2.97;83.18
70166;SHT30;57541;47.408;18.822;2023-02-26T04:13:18;2.99;83.24
70166;SHT30;57541;47.408;18.822;2023-02-26T04:13:50;2.89;83.25
70166;SHT30;57541;47.408;18.822;2023-02-26T04:14:22;2.93;83.20
70166;SHT30;57541;47.408;18.822;2023-02-26T04:14:54;2.97;82.89
70166;SHT30;57541;47.408;18.822;2023-02-26T04:15:28;2.95;83.26
70166;SHT30;57541;47.408;18.822;2023-02-26T04:15:59;2.93;83.53
70166;SHT30;57541;47.408;18.822;2023-02-26T04:16:31;2.86;83.55
70166;SHT30;57541;47.408;18.822;2023-02-26T04:17:03;2.92;83.23
70166;SHT30;57541;47.408;18.822;2023-02-26T04:17:35;2.90;83.21
70166;SHT30;57541;47.408;18.822;2023-02-26T04:18:06;2.92;83.23
70166;SHT30;57541;47.408;18.822;2023-02-26T04:18:38;2.88;83.25
70166;SHT30;57541;47.408;18.822;2023-02-26T04:19:11;2.72;83.93
70166;SHT30;57541;47.408;18.822;2023-02-26T04:19:43;2.78;83.76
70166;SHT30;57541;47.408;18.822;2023-02-26T04:20:15;2.82;83.97
70166;SHT30;57541;47.408;18.822;2023-02-26T04:20:46;2.78;84.11
70166;SHT30;57541;47.408;18.822;2023-02-26T04:21:21;2.76;84.35
70166;SHT30;57541;47.408;18.822;2023-02-26T04:21:53;2.68;84.34
70166;SHT30;57541;47.408;18.822;2023-02-26T04:22:24;2.79;84.15
70166;SHT30;57541;47.408;18.822;2023-02-26T04:22:56;2.85;83.89
70166;SHT30;57541;47.408;18.822;2023-02-26T04:23:28;2.83;83.94
70166;SHT30;57541;47.408;18.822;2023-02-26T04:24:00;2.83;83.78
70166;SHT30;57541;47.408;18.822;2023-02-26T04:24:31;2.90;83.66
70166;SHT30;57541;47.408;18.822;2023-02-26T04:25:03;2.86;83.67
70166;SHT30;57541;47.408;18.822;2023-02-26T04:25:35;2.92;83.75
70166;SHT30;57541;47.408;18.822;2023-02-26T04:26:07;2.83;83.67
70166;SHT30;57541;47.408;18.822;2023-02-26T04:26:39;2.83;84.48
70166;SHT30;57541;47.408;18.822;2023-02-26T04:27:10;2.81;84.19
70166;SHT30;57541;47.408;18.822;2023-02-26T04:27:42;2.72;84.06
70166;SHT30;57541;47.408;18.822;2023-02-26T04:28:14;2.73;84.12
70166;SHT30;57541;47.408;18.822;2023-02-26T04:28:45;2.75;83.94
70166;SHT30;57541;47.408;18.822;2023-02-26T04:29:17;2.82;83.76
70166;SHT30;57541;47.408;18.822;2023-02-26T04:29:49;2.79;84.14
70166;SHT30;57541;47.408;18.822;2023-02-26T04:30:20;2.82;84.39
70166;SHT30;57541;47.408;18.822;2023-02-26T04:30:52;2.79;84.34
70166;SHT30;57541;47.408;18.822;2023-02-26T04:31:24;2.82;84.65
70166;SHT30;57541;47.408;18.822;2023-02-26T04:31:56;2.79;84.80
70166;SHT30;57541;47.408;18.822;2023-02-26T04:32:28;2.81;84.72
70166;SHT30;57541;47.408;18.822;2023-02-26T04:33:00;2.88;84.25
70166;SHT30;57541;47.408;18.822;2023-02-26T04:33:32;2.85;84.02
70166;SHT30;57541;47.408;18.822;2023-02-26T04:34:04;2.85;83.98
70166;SHT30;57541;47.408;18.822;2023-02-26T04:34:35;2.85;83.86
70166;SHT30;57541;47.408;18.822;2023-02-26T04:35:07;2.82;84.15
70166;SHT30;57541;47.408;18.822;2023-02-26T04:35:39;2.82;84.11
70166;SHT30;57541;47.408;18.822;2023-02-26T04:36:11;2.82;84.39
70166;SHT30;57541;47.408;18.822;2023-02-26T04:36:43;2.85;84.43
70166;SHT30;57541;47.408;18.822;2023-02-26T04:37:14;2.86;84.67